« Back
NWS Peachtree City, Ga » Text Product » CSG Terminal Aerodrome Forecast


Printer-friendly Version
Current Version              Previous Versions:   1  2  3  4  5  6  7  8  9  

Terminal Aerodrome Forecast

142
FTUS42 KFFC 040546
TAFCSG
TAF
KCSG 040546Z 0406/0506 20004KT P6SM BKN080
     FM040900 20007KT 3SM BR SCT045
     FM041400 21006KT P6SM BKN045
     FM050000 19006KT P6SM BKN030
     FM050300 20007KT P6SM BKN012=

USA.gov is the U.S. government's official web portal to all federal, state and local government web resources and services.